Latest Weather Observations for Charleville

IDQ60801

Issued at 10:02 am EST Friday 28 April 2017 (issued every 30 minutes, with the page automatically refreshed every 10 minutes)

About weather observations | Map of weather stations | Latest weather observations for QLD | Other Formats
Station Details ID: 044021 Name: CHARLEVILLE AERO Lat: -26.41 Lon: 146.26 Height: 301.6 m
Data from the previous 72 hours. | See also: Recent months at Charleville
Date/Time
EST
Temp
°C
App
Temp
°C
Dew
Point
°C
Rel
Hum
%
Delta-T
°C
Wind Press
QNH
hPa
Press
MSL
hPa
Rain since
9am
mm
Dir  Spd
km/h
Gust
km/h
Spd
kts
Gust
kts
28/10:00am 14.6 7.4 0.8 39 6.0 SSE 28 35 15 19 1023.5 1022.4 0.0
28/09:30am 14.1 8.2 1.7 43 5.5 SSE 22 33 12 18 1023.5 1022.4 0.0
28/09:00am 12.1 5.9 2.0 50 4.4 SSE 24 32 13 17 1023.5 1022.4 0.0
28/08:30am 10.6 5.1 1.9 55 3.7 S 20 30 11 16 1023.2 1022.1 0.0
28/08:00am 8.7 4.9 1.6 61 3.0 S 11 17 6 9 1023.1 1022.0 0.0
28/07:30am 6.3 3.4 1.4 71 2.0 SSW 6 9 3 5 1022.9 1021.8 0.0
28/07:00am 4.2 2.0 0.9 79 1.3 SSW 2 6 1 3 1022.6 1021.5 0.0
28/06:30am 3.9 0.7 0.8 80 1.2 SSW 7 9 4 5 1022.3 1021.1 0.0
28/06:00am 4.6 1.6 0.6 75 1.6 S 6 7 3 4 1022.1 1020.9 0.0
28/05:30am 5.2 1.6 0.6 72 1.8 S 9 11 5 6 1021.9 1020.7 0.0
28/05:00am 5.5 1.9 0.7 71 1.9 SSE 9 13 5 7 1021.6 1020.4 0.0
28/04:30am 5.9 2.3 0.5 68 2.1 S 9 11 5 6 1021.7 1020.5 0.0
28/04:00am 6.7 3.5 0.6 65 2.4 S 7 9 4 5 1021.3 1020.2 0.0
28/03:30am 7.0 3.4 0.7 64 2.5 S 9 11 5 6 1021.0 1019.9 0.0
28/03:00am 7.3 4.1 1.0 64 2.6 S 7 9 4 5 1021.0 1019.9 0.0
28/02:30am 7.3 4.1 0.7 63 2.7 S 7 9 4 5 1021.2 1020.1 0.0
28/02:00am 7.7 4.2 1.1 63 2.7 S 9 11 5 6 1021.5 1020.3 0.0
28/01:30am 6.7 3.2 1.2 68 2.2 S 9 9 5 5 1021.6 1020.4 0.0
28/01:00am 7.0 3.5 1.5 68 2.3 S 9 11 5 6 1021.8 1020.6 0.0
28/12:30am 7.1 3.6 1.4 67 2.3 S 9 11 5 6 1021.9 1020.7 0.0
28/12:00am 7.1 3.9 1.0 65 2.5 SSW 7 9 4 5 1022.2 1021.0 0.0
 
Date/Time
EST
Temp
°C
App
Temp
°C
Dew
Point
°C
Rel
Hum
%
Delta-T
°C
Wind Press
QNH
hPa
Press
MSL
hPa
Rain since
9am
mm
Dir  Spd
km/h
Gust
km/h
Spd
kts
Gust
kts
27/11:30pm 7.9 4.7 0.9 61 2.9 SSW 7 9 4 5 1022.5 1021.4 0.0
27/11:00pm 9.2 5.6 0.6 55 3.5 SSW 9 13 5 7 1022.6 1021.5 0.0
27/10:30pm 9.7 6.1 0.3 52 3.9 SSW 9 13 5 7 1022.6 1021.5 0.0
27/10:00pm 10.0 6.4 0.3 51 4.0 SSW 9 13 5 7 1022.4 1021.3 0.0
27/09:30pm 10.2 6.6 0.3 50 4.1 SSW 9 11 5 6 1022.0 1020.8 0.0
27/09:00pm 11.7 7.9 -0.4 43 5.0 S 9 11 5 6 1021.8 1020.6 0.0
27/08:30pm 12.5 8.7 -1.1 39 5.6 S 9 13 5 7 1021.3 1020.2 0.0
27/08:00pm 12.6 8.4 -1.0 39 5.6 SSW 11 15 6 8 1021.2 1020.1 0.0
27/07:30pm 13.1 8.9 -0.9 38 5.8 SSW 11 13 6 7 1020.8 1019.7 0.0
27/07:00pm 13.8 9.5 -1.4 35 6.2 SSW 11 13 6 7 1020.5 1019.4 0.0
27/06:30pm 14.6 10.3 -1.5 33 6.7 SSW 11 15 6 8 1020.1 1019.0 0.0
27/06:00pm 15.5 11.2 -2.0 30 7.2 SSW 11 17 6 9 1019.8 1018.7 0.0
27/05:30pm 16.5 11.0 -2.0 28 7.7 S 17 26 9 14 1019.6 1018.5 0.0
27/05:00pm 17.3 12.2 -1.9 27 8.1 SSW 15 30 8 16 1019.4 1018.2 0.0
27/04:30pm 17.8 12.5 -0.9 28 8.1 SSW 17 28 9 15 1019.0 1017.8 0.0
27/04:00pm 17.9 12.6 -0.8 28 8.1 SW 17 30 9 16 1018.8 1017.6 0.0
27/03:30pm 18.2 13.0 -0.1 29 8.1 SSW 17 32 9 17 1018.9 1017.7 0.0
27/03:00pm 17.8 12.1 -0.5 29 8.0 SSW 19 32 10 17 1019.2 1018.0 0.0
27/02:30pm 18.1 12.5 -0.2 29 8.0 SSW 19 32 10 17 1019.0 1017.8 0.0
27/02:00pm 18.0 12.1 -0.8 28 8.1 SSW 20 33 11 18 1019.1 1017.9 0.0
27/01:30pm 17.3 10.1 0.5 32 7.4 SSE 28 37 15 20 1019.3 1018.1 0.0
27/01:00pm 16.8 10.3 0.5 33 7.2 S 24 33 13 18 1019.6 1018.5 0.0
27/12:30pm 16.8 11.3 0.5 33 7.2 SSW 19 32 10 17 1019.8 1018.7 0.0
27/12:00pm 16.3 10.9 1.2 36 6.7 S 19 26 10 14 1020.2 1019.1 0.0
27/11:30am 16.1 10.8 1.8 38 6.4 SSE 19 30 10 16 1020.5 1019.4 0.0
27/11:00am 15.5 10.2 2.0 40 6.1 SSE 19 28 10 15 1021.1 1020.0 0.0
27/10:30am 15.4 8.8 1.9 40 6.1 SSE 26 39 14 21 1021.5 1020.3 0.0
27/10:00am 14.3 8.1 1.9 43 5.5 SSE 24 33 13 18 1021.7 1020.5 0.0
27/09:30am 13.7 7.1 2.0 45 5.2 SSE 26 35 14 19 1021.6 1020.4 0.0
27/09:00am 13.0 7.0 3.1 51 4.5 SSE 24 32 13 17 1021.7 1020.5 0.2
27/08:30am 12.0 5.6 3.0 54 4.0 S 26 35 14 19 1021.3 1020.2 0.2
27/08:00am 10.8 6.2 3.6 61 3.2 S 17 22 9 12 1020.8 1019.7 0.2
27/07:30am 9.5 6.0 3.5 66 2.7 S 11 15 6 8 1020.5 1019.4 0.2
27/07:00am 8.3 5.2 3.8 73 2.0 S 9 11 5 6 1020.0 1018.9 0.2
27/06:30am 8.0 4.9 3.7 74 1.9 SSW 9 11 5 6 1019.6 1018.5 0.2
27/06:00am 8.8 5.3 3.4 69 2.4 S 11 15 6 8 1019.2 1018.0 0.2
27/05:30am 9.5 5.6 3.5 66 2.7 S 13 19 7 10 1019.1 1017.9 0.2
27/05:00am 9.7 6.2 3.4 65 2.8 SSW 11 15 6 8 1018.9 1017.7 0.2
27/04:30am 10.2 6.7 3.5 63 3.0 S 11 15 6 8 1018.5 1017.3 0.2
27/04:00am 10.6 7.1 3.6 62 3.1 S 11 15 6 8 1018.3 1017.1 0.2
27/03:30am 11.1 7.7 4.1 62 3.2 S 11 17 6 9 1018.2 1017.0 0.2
27/03:00am 11.6 8.2 3.9 59 3.5 S 11 15 6 8 1018.3 1017.1 0.2
27/02:30am 12.4 8.3 4.1 57 3.8 S 15 20 8 11 1018.3 1017.1 0.2
27/02:00am 13.2 8.8 4.6 56 4.0 S 17 22 9 12 1018.4 1017.2 0.2
27/01:30am 13.7 9.2 6.1 60 3.7 S 19 28 10 15 1018.6 1017.4 0.2
27/01:00am 14.2 11.2 7.7 65 3.3 SSE 13 17 7 9 1018.7 1017.5 0.2
27/12:30am 14.9 11.2 7.9 63 3.5 S 17 26 9 14 1018.6 1017.4 0.2
27/12:00am 15.5 12.6 8.0 61 3.8 S 13 17 7 9 1018.5 1017.3 0.2
 
Date/Time
EST
Temp
°C
App
Temp
°C
Dew
Point
°C
Rel
Hum
%
Delta-T
°C
Wind Press
QNH
hPa
Press
MSL
hPa
Rain since
9am
mm
Dir  Spd
km/h
Gust
km/h
Spd
kts
Gust
kts
26/11:30pm 16.1 12.4 7.8 58 4.2 S 17 28 9 15 1018.3 1017.1 0.2
26/11:00pm 16.1 12.4 8.1 59 4.1 SSW 17 26 9 14 1018.1 1016.9 0.2
26/10:30pm 16.2 14.0 7.7 57 4.3 SSW 9 15 5 8 1017.8 1016.7 0.2
26/10:00pm 17.3 14.3 7.6 53 5.0 SSW 13 17 7 9 1017.6 1016.5 0.2
26/09:30pm 16.6 14.1 8.3 58 4.3 SSW 11 15 6 8 1017.4 1016.3 0.2
26/09:00pm 17.6 15.5 8.2 54 4.9 SW 9 13 5 7 1017.1 1016.0 0.2
26/08:30pm 18.5 15.9 7.9 50 5.5 SSW 11 17 6 9 1016.6 1015.5 0.2
26/08:00pm 18.9 16.5 8.8 52 5.3 SSW 11 17 6 9 1016.3 1015.1 0.2
26/07:30pm 19.6 17.2 8.6 49 5.8 SW 11 17 6 9 1015.8 1014.6 0.2
26/07:00pm 20.2 18.3 9.2 49 5.9 SW 9 15 5 8 1015.5 1014.3 0.2
26/06:30pm 21.0 18.3 8.9 46 6.5 SW 13 17 7 9 1014.9 1013.7 0.2
26/06:00pm 21.8 18.6 8.3 42 7.2 SW 15 24 8 13 1014.2 1013.1 0.2
26/05:30pm 23.0 19.5 8.7 40 7.7 SW 17 30 9 16 1013.8 1012.7 0.2
26/05:00pm 23.8 19.8 8.2 37 8.4 SW 19 28 10 15 1013.4 1012.2 0.2
26/04:30pm 24.1 20.2 9.3 39 8.1 SW 20 32 11 17 1013.3 1012.1 0.2
26/04:00pm 24.7 21.2 10.2 40 8.1 SW 19 30 10 16 1013.1 1011.9 0.2
26/03:30pm 25.1 21.5 10.6 40 8.2 SW 20 33 11 18 1013.1 1011.9 0.2
26/03:00pm 24.0 21.5 12.3 48 6.8 SW 17 28 9 15 1013.1 1011.9 0.2
26/02:30pm 24.7 22.0 11.6 44 7.5 WSW 17 28 9 15 1013.2 1012.0 0.2
26/02:00pm 24.2 21.8 12.5 48 6.8 W 17 28 9 15 1013.3 1012.1 0.2
26/01:30pm 24.0 21.3 13.5 52 6.2 WSW 20 35 11 19 1013.8 1012.7 0.2
26/01:00pm 22.3 20.2 14.7 62 4.5 WSW 19 28 10 15 1014.3 1013.2 0.2
26/12:30pm 22.4 21.4 15.7 66 4.1 SSW 15 20 8 11 1014.9 1013.7 0.2
26/12:00pm 21.8 20.4 15.6 68 3.8 SW 17 24 9 13 1015.4 1014.2 0.2
26/11:30am 20.9 19.7 16.1 74 2.9 SW 17 24 9 13 1015.8 1014.6 0.2
26/11:00am 20.9 20.3 16.7 77 2.6 WSW 15 22 8 12 1015.9 1014.7 0.2
26/10:47am 20.6 20.6 17.2 81 2.1 SW 13 19 7 10 1015.9 1014.7 0.2
26/10:30am 20.4 20.5 17.4 83 1.9 SW 13 19 7 10 1016.0 1014.8 0.2
26/10:00am 19.4 20.3 17.5 89 1.2 W 9 13 5 7 1016.2 1015.0 0.2
26/09:41am 19.4 20.4 17.7 90 1.1 WSW 9 13 5 7 1016.2 1015.0 0.2
26/09:30am 19.3 20.6 17.6 90 1.1 WSW 7 11 4 6 1016.3 1015.1 0.2
26/09:11am 19.2 20.1 17.5 90 1.1 W 9 11 5 6 1016.3 1015.1 0.2
26/09:00am 19.3 20.6 17.6 90 1.1 SW 7 9 4 5 1016.1 1014.9 5.8
26/08:36am 19.2 20.7 17.7 91 0.9 SW 6 9 3 5 1015.6 1014.4 5.8
26/08:32am 19.2 20.8 17.9 92 0.8 WSW 6 9 3 5 1015.6 1014.4 5.8
26/08:30am 19.3 21.4 18.0 92 0.8 WSW 4 7 2 4 1015.6 1014.4 5.8
26/08:16am 19.0 20.0 17.7 92 0.8 W 9 11 5 6 1015.7 1014.5 5.8
26/08:11am 19.0 20.0 17.7 92 0.8 W 9 11 5 6 1015.9 1014.7 5.0
26/08:00am 19.1 20.5 17.8 92 0.8 SSW 7 11 4 6 1015.4 1014.2 5.0
26/07:33am 19.2 20.6 17.9 92 0.8 WSW 7 9 4 5 1015.1 1013.9 4.4
26/07:30am 19.2 20.6 17.9 92 0.8 SW 7 9 4 5 1015.1 1013.9 4.4
26/07:23am 19.2 20.6 17.9 92 0.8 SW 7 11 4 6 1014.8 1013.6 4.4
26/07:04am 19.2 22.0 17.9 92 0.8 CALM 0 4 0 2 1014.6 1013.4 4.2
26/07:00am 19.2 22.0 17.9 92 0.8 CALM 0 0 0 0 1014.7 1013.5 3.8
26/06:30am 19.1 20.5 17.8 92 0.8 SSE 7 7 4 4 1014.1 1013.0 3.6
26/06:00am 19.2 21.2 17.9 92 0.8 SSW 4 7 2 4 1014.1 1013.0 3.6
26/05:49am 19.2 20.8 17.9 92 0.8 SSE 6 9 3 5 1014.0 1012.9 3.4
26/05:30am 19.2 20.3 17.9 92 0.8 SSE 9 11 5 6 1013.7 1012.6 3.4
26/05:29am 19.2 20.3 17.9 92 0.8 SSE 9 11 5 6 1013.6 1012.5 3.4
26/05:23am 19.2 20.3 17.9 92 0.8 SSE 9 13 5 7 1013.7 1012.6 3.4
26/05:15am 19.1 20.5 17.8 92 0.8 S 7 13 4 7 1013.6 1012.5 3.2
26/05:00am 19.2 20.3 17.9 92 0.8 S 9 11 5 6 1013.7 1012.6 2.8
26/04:30am 19.2 19.8 17.7 91 0.9 SSE 11 15 6 8 1013.1 1011.9 2.8
26/04:24am 19.1 19.4 17.8 92 0.8 SSE 13 17 7 9 1012.9 1011.7 2.8
26/04:15am 19.2 19.4 17.7 91 0.9 S 13 19 7 10 1013.1 1011.9 2.8
26/04:10am 19.3 19.9 17.8 91 0.9 S 11 19 6 10 1013.2 1012.0 2.6
26/04:02am 19.5 19.0 17.8 90 1.1 SW 17 26 9 14 1013.8 1012.7 2.2
26/04:00am 19.5 19.4 17.8 90 1.1 SW 15 26 8 14 1014.0 1012.9 2.0
26/03:30am 19.4 19.5 17.4 88 1.2 S 13 20 7 11 1012.8 1011.6 2.0
26/03:00am 19.9 21.2 17.5 86 1.5 SSW 7 9 4 5 1012.9 1011.7 2.0
26/02:30am 20.4 20.9 17.4 83 1.9 SW 11 15 6 8 1013.4 1012.2 2.0
26/02:00am 20.7 21.9 17.3 81 2.1 SW 7 9 4 5 1013.0 1011.8 2.0
26/01:30am 20.8 22.0 17.4 81 2.1 N 7 7 4 4 1012.6 1011.4 2.0
26/01:00am 20.9 21.3 17.3 80 2.2 NE 11 15 6 8 1012.7 1011.5 2.0
26/12:30am 20.8 20.9 17.4 81 2.1 ENE 13 15 7 8 1013.2 1012.0 2.0
26/12:00am 20.6 21.4 17.4 82 2.0 NE 9 11 5 6 1013.9 1012.8 2.0
 
Date/Time
EST
Temp
°C
App
Temp
°C
Dew
Point
°C
Rel
Hum
%
Delta-T
°C
Wind Press
QNH
hPa
Press
MSL
hPa
Rain since
9am
mm
Dir  Spd
km/h
Gust
km/h
Spd
kts
Gust
kts
25/11:30pm 20.5 22.0 17.7 84 1.7 ENE 6 9 3 5 1014.0 1012.9 2.0
25/11:00pm 20.4 21.6 17.4 83 1.9 ENE 7 9 4 5 1014.3 1013.2 2.0
25/10:30pm 19.8 20.2 17.2 85 1.6 SE 11 17 6 9 1014.4 1013.3 2.0
25/10:00pm 19.6 19.7 17.4 87 1.4 SE 13 15 7 8 1014.6 1013.4 2.0
25/09:30pm 19.6 17.9 17.2 86 1.5 S 22 33 12 18 1015.1 1013.9 2.0
25/09:17pm 20.1 18.7 16.9 82 2.0 S 20 33 11 18 1015.4 1014.2 1.6
25/09:04pm 20.9 17.3 16.3 75 2.8 SSW 30 48 16 26 1015.4 1014.2 1.4
25/09:00pm 21.6 17.1 15.4 68 3.7 SW 33 52 18 28 1014.9 1013.7 1.2
25/08:58pm 23.5 19.6 15.5 60 4.9 SW 30 52 16 28 1015.0 1013.8 0.6
25/08:51pm 25.8 24.5 12.6 44 7.7 NW 11 52 6 28 1014.2 1013.1 0.0
25/08:30pm 25.8 24.7 11.9 42 8.1 N 9 11 5 6 1013.2 1012.0 0.0
25/08:00pm 26.1 24.9 11.5 40 8.4 NE 9 11 5 6 1013.1 1011.9 0.0
25/07:30pm 26.3 25.6 12.0 41 8.3 NE 7 9 4 5 1012.8 1011.6 0.0
25/07:00pm 26.2 25.3 11.5 40 8.5 ESE 7 9 4 5 1012.6 1011.4 0.0
25/06:30pm 27.0 27.4 11.1 37 9.1 CALM 0 0 0 0 1012.6 1011.4 0.0
25/06:00pm 28.2 26.4 10.9 34 10.0 SE 11 13 6 7 1012.2 1011.0 0.0
25/05:30pm 29.0 26.7 10.6 32 10.6 S 13 15 7 8 1012.4 1011.2 0.0
25/05:00pm 30.0 28.0 10.0 29 11.5 SSW 11 17 6 9 1012.2 1011.0 0.0
25/04:30pm 31.0 28.4 9.3 26 12.3 WNW 13 17 7 9 1012.1 1010.9 0.0
25/04:00pm 31.2 27.7 8.8 25 12.7 WNW 17 24 9 13 1012.0 1010.8 0.0
25/03:30pm 31.7 28.3 9.3 25 12.8 NW 17 24 9 13 1011.9 1010.7 0.0
25/03:00pm 32.2 29.3 9.7 25 13.0 NW 15 28 8 15 1012.2 1011.0 0.0
25/02:30pm 32.8 31.0 9.6 24 13.4 N 9 17 5 9 1012.4 1011.2 0.0
25/02:00pm 31.1 27.4 9.3 26 12.4 WNW 19 30 10 16 1012.9 1011.7 0.0
25/01:30pm 32.0 28.1 9.5 25 12.9 NW 20 30 11 16 1013.3 1012.1 0.0
25/01:00pm 30.7 26.8 9.6 27 12.0 WNW 20 33 11 18 1013.8 1012.7 0.0
25/12:30pm 30.5 26.9 10.5 29 11.6 NW 20 33 11 18 1014.7 1013.5 0.0
25/12:00pm 30.3 26.4 10.8 30 11.3 NNW 22 30 12 16 1015.5 1014.3 0.0
25/11:30am 29.2 25.7 10.8 32 10.6 N 20 33 11 18 1016.2 1015.0 0.0
25/11:00am 28.6 23.6 10.8 33 10.2 NNW 28 35 15 19 1016.8 1015.7 0.0
25/10:30am 27.7 23.2 11.3 36 9.5 NNW 26 33 14 18 1017.3 1016.2 0.0

Other Formats:

Comma delimited format used in spreadsheet applications
http://www.bom.gov.au/fwo/IDQ60801/IDQ60801.94510.axf

JavaScript Object Notation format (JSON) in row-major order
http://www.bom.gov.au/fwo/IDQ60801/IDQ60801.94510.json